Latest Weather Observations for Pirlangimpi

IDD60801

Issued at 8:31 am CST Tuesday 3 March 2015 (issued every 30 minutes, with the page automatically refreshed every 10 minutes)

About weather observations | Map of weather stations | Latest weather observations for NT | Other Formats
Station Details ID: 014142 Name: PIRLANGIMPI AIRPORT Lat: -11.40 Lon: 130.42 Height: 18.3 m
Data from the previous 72 hours. | See also: Recent months at Pirlangimpi
Date/Time
CST
Temp
°C
App
Temp
°C
Dew
Point
Rel
Hum
%
Delta-T
°C
Wind Press
QNH
hPa
Press
MSL
hPa
Rain
since 9 am
mm
Dir
 
Spd
km/h
Gust
km/h
Spd
kts
Gust
kts
03/08:30am 27.1 32.5 25.5 91 1.1 E 7 17 4 9 1005.9 1005.8 10.2
03/08:00am 25.9 31.3 25.4 97 0.4 E 7 9 4 5 1005.4 1005.3 10.2
03/07:30am 24.4 29.8 23.9 97 0.3 NE 2 6 1 3 1005.2 1005.1 10.2
03/07:00am 23.8 28.7 23.1 96 0.5 NNE 2 4 1 2 1004.8 1004.7 10.2
03/06:30am 23.8 29.1 23.1 96 0.5 CALM 0 0 0 0 1004.2 1004.1 10.2
03/06:00am 23.9 28.5 23.2 96 0.5 SE 4 6 2 3 1003.9 1003.8 10.2
03/05:30am 23.8 28.7 23.1 96 0.5 SSE 2 4 1 2 1003.7 1003.6 10.2
03/05:00am 24.1 29.5 23.2 95 0.6 CALM 0 0 0 0 1003.6 1003.5 10.2
03/04:30am 24.2 29.2 23.2 94 0.7 E 2 4 1 2 1003.6 1003.5 10.2
03/04:00am 24.4 29.9 23.4 94 0.7 CALM 0 2 0 1 1003.5 1003.4 10.2
03/03:30am 24.7 29.9 23.5 93 0.8 ESE 2 4 1 2 1003.6 1003.5 10.2
03/03:00am 25.1 30.1 23.9 93 0.8 SE 4 7 2 4 1003.7 1003.6 10.2
03/02:30am 25.3 30.1 24.1 93 0.8 S 6 6 3 3 1004.1 1004.0 10.2
03/02:00am 25.6 31.1 24.6 94 0.7 WSW 4 9 2 5 1004.7 1004.6 10.2
03/01:30am 25.3 30.6 24.3 94 0.7 NW 4 6 2 3 1004.9 1004.8 10.2
03/01:00am 25.3 30.6 24.3 94 0.7 WNW 4 7 2 4 1005.5 1005.4 10.2
03/12:30am 24.6 30.2 23.6 94 0.7 CALM 0 0 0 0 1005.7 1005.6 10.2
03/12:00am 24.4 29.0 23.2 93 0.8 NE 4 6 2 3 1005.8 1005.7 10.2
 
Date/Time
CST
Temp
°C
App
Temp
°C
Dew
Point
Rel
Hum
%
Delta-T
°C
Wind Press
QNH
hPa
Press
MSL
hPa
Rain
since 9 am
mm
Dir
 
Spd
km/h
Gust
km/h
Spd
kts
Gust
kts
02/11:30pm 24.5 30.1 23.5 94 0.7 CALM 0 2 0 1 1006.0 1005.9 10.2
02/11:00pm 24.5 29.9 23.3 93 0.8 CALM 0 0 0 0 1006.1 1006.0 10.2
02/10:30pm 24.5 29.3 22.9 91 1.1 NNE 2 6 1 3 1006.0 1005.9 10.2
02/10:00pm 24.8 30.0 22.9 89 1.3 CALM 0 0 0 0 1005.7 1005.6 10.2
02/09:30pm 25.2 30.3 23.3 89 1.3 S 2 6 1 3 1005.1 1005.0 10.2
02/09:00pm 25.7 30.5 22.8 84 2.0 WSW 2 4 1 2 1004.4 1004.3 10.2
02/08:30pm 26.5 30.2 23.2 82 2.3 SW 9 15 5 8 1004.8 1004.7 10.2
02/08:00pm 26.8 32.9 24.5 87 1.6 CALM 0 4 0 2 1004.9 1004.8 10.2
02/07:30pm 27.0 32.8 24.5 86 1.7 SW 2 6 1 3 1004.6 1004.5 10.2
02/07:00pm 27.5 33.2 24.4 83 2.2 WSW 2 4 1 2 1003.8 1003.7 10.2
02/06:30pm 27.9 33.5 24.3 81 2.5 W 2 6 1 3 1003.7 1003.6 10.2
02/06:00pm 28.7 34.0 24.3 77 3.1 WSW 4 9 2 5 1003.5 1003.4 10.2
02/05:30pm 28.8 33.9 24.1 76 3.3 WSW 4 7 2 4 1003.5 1003.4 10.2
02/05:00pm 28.6 33.1 23.9 75 3.2 SSW 7 11 4 6 1003.4 1003.3 10.2
02/04:30pm 28.1 33.1 24.5 81 2.5 SW 6 9 3 5 1003.3 1003.2 10.2
02/04:00pm 27.1 31.8 24.0 83 2.1 WSW 6 9 3 5 1003.3 1003.2 10.2
02/03:30pm 26.6 31.5 24.4 88 1.5 WSW 6 11 3 6 1003.7 1003.6 10.2
02/03:00pm 26.2 31.4 24.2 89 1.4 SW 4 9 2 5 1004.2 1004.1 10.0
02/02:30pm 25.7 30.6 24.3 92 1.0 SW 6 13 3 7 1004.3 1004.2 10.0
02/02:00pm 25.3 30.4 24.1 93 0.8 WNW 4 9 2 5 1004.9 1004.8 10.0
02/01:30pm 25.0 29.7 24.0 94 0.7 WNW 6 13 3 7 1005.5 1005.4 10.0
02/01:00pm 25.2 29.9 24.3 95 0.6 WNW 7 15 4 8 1006.6 1006.5 9.8
02/12:30pm 24.8 29.8 23.9 95 0.6 WNW 4 7 2 4 1006.9 1006.8 9.0
02/12:00pm 24.7 28.9 23.5 93 0.8 SW 7 15 4 8 1007.4 1007.3 8.6
02/11:30am 25.4 28.9 23.6 90 1.2 WSW 11 26 6 14 1007.5 1007.4 3.6
02/11:00am 27.8 34.0 25.8 89 1.4 NW 4 6 2 3 1006.6 1006.5 0.2
02/10:30am 28.8 35.9 26.6 88 1.6 NNW 2 4 1 2 1006.8 1006.7 0.0
02/10:00am 28.9 35.7 26.1 85 2.0 NW 2 6 1 3 1006.7 1006.6 0.0
02/09:30am 28.8 36.2 26.4 87 1.7 CALM 0 4 0 2 1007.2 1007.1 0.0
02/09:00am 28.6 36.1 26.6 89 1.4 CALM 0 6 0 3 1006.8 1006.7 47.6
02/08:30am 27.9 35.1 26.7 93 0.9 S 2 6 1 3 1006.9 1006.8 47.6
02/08:00am 27.2 34.4 26.1 94 0.8 CALM 0 0 0 0 1006.7 1006.6 47.6
02/07:30am 26.9 33.6 25.9 94 0.7 NW 2 6 1 3 1005.9 1005.8 47.6
02/07:00am 26.7 33.1 25.5 93 0.8 W 2 6 1 3 1005.5 1005.4 47.6
02/06:30am 26.5 32.9 25.5 94 0.7 W 2 6 1 3 1005.3 1005.2 47.6
02/06:00am 26.6 32.7 25.6 94 0.7 W 4 7 2 4 1005.2 1005.1 47.6
02/05:30am 26.4 32.8 25.5 95 0.6 W 2 7 1 4 1005.1 1005.0 47.6
02/05:00am 26.3 32.9 25.8 97 0.4 WNW 2 9 1 5 1005.0 1004.9 47.6
02/04:30am 25.9 32.5 25.2 96 0.5 CALM 0 0 0 0 1004.9 1004.8 47.6
02/04:00am 26.0 32.6 25.3 96 0.5 CALM 0 2 0 1 1005.2 1005.1 47.6
02/03:30am 26.0 32.6 25.3 96 0.5 CALM 0 2 0 1 1005.3 1005.2 47.6
02/03:00am 26.1 32.7 25.2 95 0.6 CALM 0 2 0 1 1005.3 1005.2 47.6
02/02:30am 26.3 32.8 25.6 96 0.5 SW 2 6 1 3 1005.3 1005.2 47.6
02/02:00am 26.3 33.0 25.4 95 0.6 CALM 0 0 0 0 1006.2 1006.1 47.6
02/01:30am 26.4 32.8 25.5 95 0.6 SW 2 4 1 2 1006.7 1006.6 47.6
02/01:00am 26.5 32.6 25.6 95 0.6 S 4 6 2 3 1007.0 1006.9 47.6
02/12:30am 26.5 32.6 25.6 95 0.6 WNW 4 7 2 4 1006.2 1006.1 47.4
02/12:00am 26.4 32.3 25.4 94 0.7 WNW 4 6 2 3 1006.5 1006.4 47.4
 
Date/Time
CST
Temp
°C
App
Temp
°C
Dew
Point
Rel
Hum
%
Delta-T
°C
Wind Press
QNH
hPa
Press
MSL
hPa
Rain
since 9 am
mm
Dir
 
Spd
km/h
Gust
km/h
Spd
kts
Gust
kts
01/11:30pm 26.3 32.6 25.4 95 0.6 W 2 6 1 3 1007.2 1007.1 47.4
01/11:00pm 25.9 31.6 25.0 95 0.6 WSW 4 6 2 3 1007.6 1007.5 47.4
01/10:30pm 26.1 32.7 25.2 95 0.6 CALM 0 0 0 0 1008.0 1007.9 47.4
01/10:00pm 26.1 32.3 25.2 95 0.6 W 2 4 1 2 1007.7 1007.6 47.4
01/09:30pm 26.1 32.3 25.2 95 0.6 WNW 2 6 1 3 1007.5 1007.4 47.4
01/09:00pm 26.1 32.5 24.9 93 0.8 CALM 0 2 0 1 1007.1 1007.0 47.4
01/08:30pm 26.3 32.3 24.9 92 1.0 W 2 6 1 3 1006.9 1006.8 47.4
01/08:00pm 26.4 32.5 25.0 92 1.0 WNW 2 4 1 2 1006.9 1006.8 47.4
01/07:30pm 26.6 32.8 25.2 92 1.0 WSW 2 6 1 3 1006.3 1006.2 47.4
01/07:00pm 26.8 32.9 25.6 93 0.8 W 4 13 2 7 1005.6 1005.5 47.4
01/06:30pm 26.7 32.3 25.5 93 0.8 WSW 6 13 3 7 1005.5 1005.4 47.4
01/06:00pm 26.3 32.2 25.3 94 0.7 WNW 4 11 2 6 1005.2 1005.1 47.2
01/05:30pm 26.3 32.2 25.3 94 0.7 W 4 9 2 5 1005.1 1005.0 47.2
01/05:00pm 26.6 32.2 25.7 95 0.6 W 7 15 4 8 1004.7 1004.6 47.2
01/04:30pm 26.8 33.1 26.5 98 0.2 NW 6 11 3 6 1004.5 1004.4 46.2
01/04:00pm 25.1 31.1 24.2 95 0.6 CALM 0 0 0 0 1005.2 1005.1 45.0
01/03:30pm 25.2 30.8 24.3 95 0.6 NNW 2 6 1 3 1005.2 1005.1 44.6
01/03:00pm 25.1 29.9 24.2 95 0.6 NW 6 11 3 6 1005.4 1005.3 44.2
01/02:30pm 24.2 28.3 23.0 93 0.8 NNW 6 15 3 8 1006.1 1006.0 42.0
01/02:00pm 25.5 30.0 23.9 91 1.1 SSW 7 15 4 8 1006.4 1006.3 14.8
01/01:30pm 28.1 33.7 25.7 87 1.7 W 7 20 4 11 1006.0 1005.9 4.4
01/01:00pm 29.1 34.5 25.5 81 2.5 W 7 19 4 10 1006.7 1006.6 1.0
01/12:30pm 31.1 36.4 25.9 74 3.7 WNW 9 19 5 10 1007.2 1007.1 0.0
01/12:00pm 32.1 38.0 26.2 71 4.2 WNW 7 13 4 7 1007.7 1007.6 0.0
01/11:30am 30.0 35.4 26.0 79 2.9 WNW 9 20 5 11 1007.8 1007.7 0.0
01/11:00am 31.4 37.3 26.2 74 3.7 W 7 15 4 8 1008.0 1007.9 0.0
01/10:30am 29.6 35.1 25.6 79 2.8 WNW 7 13 4 7 1008.3 1008.2 0.0
01/10:00am 29.9 35.3 25.4 77 3.2 W 7 17 4 9 1008.4 1008.3 0.0
01/09:30am 30.6 36.9 26.5 79 2.9 WNW 6 13 3 7 1008.2 1008.1 0.0
01/09:00am 29.2 35.5 26.0 83 2.3 W 4 6 2 3 1008.1 1008.0 0.0
01/08:30am 28.4 34.9 26.2 88 1.6 WNW 4 9 2 5 1007.7 1007.6 0.0
01/08:00am 27.6 33.8 25.8 90 1.3 WNW 4 7 2 4 1007.1 1007.0 0.0
01/07:30am 27.2 33.1 25.4 90 1.3 W 4 9 2 5 1006.6 1006.5 0.0
01/07:00am 26.9 33.0 25.1 90 1.3 WNW 2 7 1 4 1006.2 1006.1 0.0
01/06:30am 27.2 32.8 25.4 90 1.3 WNW 6 11 3 6 1005.9 1005.8 0.0
01/06:00am 26.8 33.0 25.2 91 1.1 W 2 7 1 4 1005.9 1005.8 0.0
01/05:30am 26.7 32.5 25.1 91 1.1 WNW 4 7 2 4 1005.8 1005.7 0.0
01/05:00am 27.0 33.3 25.4 91 1.1 WSW 2 6 1 3 1005.7 1005.6 0.0
01/04:30am 26.9 33.0 25.1 90 1.3 W 2 2 1 1 1005.7 1005.6 0.0
01/04:00am 27.0 33.1 25.0 89 1.4 W 2 9 1 5 1005.8 1005.7 0.0
01/03:30am 27.1 33.1 24.9 88 1.5 WNW 2 6 1 3 1006.2 1006.1 0.0
01/03:00am 27.2 32.8 24.8 87 1.7 W 4 7 2 4 1006.3 1006.2 0.0
01/02:30am 27.4 32.6 24.8 86 1.8 W 6 11 3 6 1006.6 1006.5 0.0
01/02:00am 27.3 33.2 25.3 89 1.4 W 4 9 2 5 1006.9 1006.8 0.0
01/01:30am 27.4 33.3 25.4 89 1.4 W 4 11 2 6 1007.0 1006.9 0.0
01/01:00am 27.4 33.3 25.4 89 1.4 W 4 6 2 3 1007.3 1007.2 0.0
01/12:30am 27.3 33.6 25.3 89 1.4 WNW 2 7 1 4 1007.7 1007.6 0.0
01/12:00am 27.4 33.6 25.2 88 1.5 WNW 2 4 1 2 1008.3 1008.2 0.0
 
Date/Time
CST
Temp
°C
App
Temp
°C
Dew
Point
Rel
Hum
%
Delta-T
°C
Wind Press
QNH
hPa
Press
MSL
hPa
Rain
since 9 am
mm
Dir
 
Spd
km/h
Gust
km/h
Spd
kts
Gust
kts
28/11:30pm 27.4 33.3 25.4 89 1.4 WNW 4 7 2 4 1008.6 1008.5 0.0
28/11:00pm 27.4 33.3 25.4 89 1.4 WSW 4 9 2 5 1008.8 1008.7 0.0
28/10:30pm 27.4 33.2 25.2 88 1.5 WSW 4 6 2 3 1008.8 1008.7 0.0
28/10:00pm 27.5 33.6 25.1 87 1.7 WSW 2 6 1 3 1008.4 1008.3 0.0
28/09:30pm 27.4 33.1 25.0 87 1.7 WNW 4 9 2 5 1007.8 1007.7 0.0
28/09:00pm 27.4 33.1 25.0 87 1.7 WNW 4 9 2 5 1007.3 1007.2 0.0
28/08:30pm 27.4 33.3 24.7 85 1.9 WNW 2 11 1 6 1006.5 1006.4 0.0
28/08:00pm 27.8 33.0 24.2 81 2.5 W 4 11 2 6 1006.3 1006.2 0.0
28/07:30pm 28.3 33.2 24.3 79 2.8 W 6 11 3 6 1006.2 1006.1 0.0
28/07:00pm 28.8 34.0 24.8 79 2.8 W 6 9 3 5 1006.1 1006.0 0.0
28/06:30pm 29.3 34.2 24.6 76 3.3 WSW 7 11 4 6 1005.5 1005.4 0.0
28/06:00pm 29.6 35.4 25.1 77 3.2 W 4 7 2 4 1005.1 1005.0 0.0
28/05:30pm 29.4 35.5 25.6 80 2.7 WSW 4 9 2 5 1005.0 1004.9 0.0
28/05:00pm 30.2 35.5 25.3 75 3.5 W 7 15 4 8 1005.3 1005.2 0.0
28/04:30pm 29.7 34.6 24.6 74 3.6 WSW 7 17 4 9 1005.6 1005.5 0.0
28/04:00pm 30.1 35.2 24.9 73 3.7 WSW 7 15 4 8 1005.4 1005.3 0.0
28/03:30pm 31.5 35.9 24.4 66 5.0 W 9 20 5 11 1005.7 1005.6 0.0
28/03:00pm 30.9 35.2 24.3 68 4.6 W 9 17 5 9 1006.0 1005.9 0.0
28/02:30pm 30.5 34.8 24.9 72 3.9 W 11 26 6 14 1006.4 1006.3 0.0
28/02:00pm 30.6 35.5 25.2 73 3.8 WNW 9 19 5 10 1006.6 1006.5 0.0
28/01:30pm 31.3 36.4 25.6 71 4.1 WNW 9 20 5 11 1007.1 1007.0 0.0
28/01:00pm 30.8 35.7 25.2 72 4.0 WNW 9 20 5 11 1007.5 1007.4 0.0
28/12:30pm 30.9 35.8 25.3 72 4.0 W 9 17 5 9 1007.8 1007.7 0.0
28/12:00pm 30.7 35.8 25.5 74 3.7 WNW 9 17 5 9 1008.2 1008.1 0.0
28/11:30am 30.3 35.1 25.1 73 3.7 WNW 9 20 5 11 1008.7 1008.6 0.0
28/11:00am 30.9 36.3 25.5 73 3.8 WNW 7 19 4 10 1008.9 1008.8 0.0
28/10:30am 30.1 35.9 26.1 79 2.9 W 7 15 4 8 1008.9 1008.8 0.0
28/10:00am 29.4 34.5 24.9 77 3.2 WNW 7 17 4 9 1008.9 1008.8 0.0
28/09:30am 29.5 34.7 25.7 80 2.7 WNW 9 19 5 10 1008.5 1008.4 0.0
28/09:00am 28.6 34.6 26.0 86 1.8 WNW 6 13 3 7 1008.1 1008.0 57.4

Other Formats:

Comma delimited format used in spreadsheet applications
http://www.bom.gov.au/fwo/IDD60801/IDD60801.94119.axf

JavaScript Object Notation format (JSON) in row-major order
http://www.bom.gov.au/fwo/IDD60801/IDD60801.94119.json